sensor_id;sensor_type;location;lat;lon;timestamp;temperature;humidity
21582;DHT22;10952;50.836;4.348;2024-02-26T00:01:51;9.00;99.90
21582;DHT22;10952;50.836;4.348;2024-02-26T00:04:34;8.90;99.90
21582;DHT22;10952;50.836;4.348;2024-02-26T00:07:01;8.90;99.90
21582;DHT22;10952;50.836;4.348;2024-02-26T00:09:28;8.80;99.90
21582;DHT22;10952;50.836;4.348;2024-02-26T00:11:53;8.80;99.90
21582;DHT22;10952;50.836;4.348;2024-02-26T00:14:23;8.80;99.90
21582;DHT22;10952;50.836;4.348;2024-02-26T00:16:55;8.80;99.90
21582;DHT22;10952;50.836;4.348;2024-02-26T00:19:24;8.70;99.90
21582;DHT22;10952;50.836;4.348;2024-02-26T00:21:52;8.70;99.90
21582;DHT22;10952;50.836;4.348;2024-02-26T00:24:26;8.70;99.90
21582;DHT22;10952;50.836;4.348;2024-02-26T00:26:59;8.90;99.90
21582;DHT22;10952;50.836;4.348;2024-02-26T00:29:25;8.80;99.90
21582;DHT22;10952;50.836;4.348;2024-02-26T00:31:52;8.80;99.90
21582;DHT22;10952;50.836;4.348;2024-02-26T00:34:22;8.90;99.90
21582;DHT22;10952;50.836;4.348;2024-02-26T00:36:54;8.90;99.90
21582;DHT22;10952;50.836;4.348;2024-02-26T00:39:19;8.70;99.90
21582;DHT22;10952;50.836;4.348;2024-02-26T00:41:47;8.60;99.90
21582;DHT22;10952;50.836;4.348;2024-02-26T00:44:16;8.60;99.90
21582;DHT22;10952;50.836;4.348;2024-02-26T00:46:45;8.60;99.90
21582;DHT22;10952;50.836;4.348;2024-02-26T00:49:30;8.60;99.90
21582;DHT22;10952;50.836;4.348;2024-02-26T00:55:18;8.80;99.90
21582;DHT22;10952;50.836;4.348;2024-02-26T01:01:07;8.60;99.90
21582;DHT22;10952;50.836;4.348;2024-02-26T01:03:35;8.50;99.90
21582;DHT22;10952;50.836;4.348;2024-02-26T01:06:02;8.60;99.90
21582;DHT22;10952;50.836;4.348;2024-02-26T01:08:29;8.60;99.90
21582;DHT22;10952;50.836;4.348;2024-02-26T01:10:55;8.60;99.90
21582;DHT22;10952;50.836;4.348;2024-02-26T01:13:23;8.50;99.90
21582;DHT22;10952;50.836;4.348;2024-02-26T01:15:48;8.40;99.90
21582;DHT22;10952;50.836;4.348;2024-02-26T01:18:15;8.30;99.90
21582;DHT22;10952;50.836;4.348;2024-02-26T01:20:41;8.30;99.90
21582;DHT22;10952;50.836;4.348;2024-02-26T01:23:10;8.10;99.90
21582;DHT22;10952;50.836;4.348;2024-02-26T01:25:37;8.10;99.90
21582;DHT22;10952;50.836;4.348;2024-02-26T01:28:04;8.00;99.90
21582;DHT22;10952;50.836;4.348;2024-02-26T01:30:31;8.00;99.90
21582;DHT22;10952;50.836;4.348;2024-02-26T01:33:12;7.90;99.90
21582;DHT22;10952;50.836;4.348;2024-02-26T01:35:44;8.00;99.90
21582;DHT22;10952;50.836;4.348;2024-02-26T01:38:10;8.00;99.90
21582;DHT22;10952;50.836;4.348;2024-02-26T01:40:37;7.90;99.90
21582;DHT22;10952;50.836;4.348;2024-02-26T01:43:02;8.00;99.90
21582;DHT22;10952;50.836;4.348;2024-02-26T01:45:28;8.00;99.90
21582;DHT22;10952;50.836;4.348;2024-02-26T01:47:54;8.10;99.90
21582;DHT22;10952;50.836;4.348;2024-02-26T01:50:21;8.10;99.90
21582;DHT22;10952;50.836;4.348;2024-02-26T01:52:49;8.20;99.90
21582;DHT22;10952;50.836;4.348;2024-02-26T01:55:17;8.10;99.90
21582;DHT22;10952;50.836;4.348;2024-02-26T01:57:50;8.10;99.90
21582;DHT22;10952;50.836;4.348;2024-02-26T02:00:18;8.10;99.90
21582;DHT22;10952;50.836;4.348;2024-02-26T02:02:45;8.00;99.90
21582;DHT22;10952;50.836;4.348;2024-02-26T02:05:15;8.00;99.90
21582;DHT22;10952;50.836;4.348;2024-02-26T02:07:47;8.00;99.90
21582;DHT22;10952;50.836;4.348;2024-02-26T02:10:16;8.00;99.90
21582;DHT22;10952;50.836;4.348;2024-02-26T02:12:48;8.10;99.90
21582;DHT22;10952;50.836;4.348;2024-02-26T02:15:14;8.10;99.90
21582;DHT22;10952;50.836;4.348;2024-02-26T02:17:43;8.10;99.90
21582;DHT22;10952;50.836;4.348;2024-02-26T02:20:16;8.10;99.90
21582;DHT22;10952;50.836;4.348;2024-02-26T02:22:45;8.20;99.90
21582;DHT22;10952;50.836;4.348;2024-02-26T02:25:11;8.20;99.90
21582;DHT22;10952;50.836;4.348;2024-02-26T02:27:37;8.10;99.90
21582;DHT22;10952;50.836;4.348;2024-02-26T02:30:06;8.00;99.90
21582;DHT22;10952;50.836;4.348;2024-02-26T02:32:32;7.90;99.90
21582;DHT22;10952;50.836;4.348;2024-02-26T02:35:00;7.80;99.90
21582;DHT22;10952;50.836;4.348;2024-02-26T02:37:27;7.80;99.90
21582;DHT22;10952;50.836;4.348;2024-02-26T02:39:54;7.90;99.90
21582;DHT22;10952;50.836;4.348;2024-02-26T02:42:22;7.90;99.90
21582;DHT22;10952;50.836;4.348;2024-02-26T02:44:51;7.80;99.90
21582;DHT22;10952;50.836;4.348;2024-02-26T02:47:18;7.80;99.90
21582;DHT22;10952;50.836;4.348;2024-02-26T02:49:44;7.80;99.90
21582;DHT22;10952;50.836;4.348;2024-02-26T02:52:11;8.00;99.90
21582;DHT22;10952;50.836;4.348;2024-02-26T02:54:39;8.00;99.90
21582;DHT22;10952;50.836;4.348;2024-02-26T02:57:10;7.90;99.90
21582;DHT22;10952;50.836;4.348;2024-02-26T02:59:39;7.90;99.90
21582;DHT22;10952;50.836;4.348;2024-02-26T03:02:05;8.00;99.90
21582;DHT22;10952;50.836;4.348;2024-02-26T03:04:32;8.00;99.90
21582;DHT22;10952;50.836;4.348;2024-02-26T03:07:07;8.10;99.90
21582;DHT22;10952;50.836;4.348;2024-02-26T03:09:33;8.10;99.90
21582;DHT22;10952;50.836;4.348;2024-02-26T03:12:02;7.90;99.90
21582;DHT22;10952;50.836;4.348;2024-02-26T03:14:30;7.90;99.90
21582;DHT22;10952;50.836;4.348;2024-02-26T03:17:01;7.90;99.90
21582;DHT22;10952;50.836;4.348;2024-02-26T03:19:29;7.90;99.90
21582;DHT22;10952;50.836;4.348;2024-02-26T03:21:58;7.90;99.90
21582;DHT22;10952;50.836;4.348;2024-02-26T03:24:27;7.80;99.90
21582;DHT22;10952;50.836;4.348;2024-02-26T03:26:54;7.90;99.90
21582;DHT22;10952;50.836;4.348;2024-02-26T03:29:22;7.80;99.90
21582;DHT22;10952;50.836;4.348;2024-02-26T03:31:54;7.90;99.90
21582;DHT22;10952;50.836;4.348;2024-02-26T03:34:33;7.80;99.90
21582;DHT22;10952;50.836;4.348;2024-02-26T03:37:03;7.60;99.90
21582;DHT22;10952;50.836;4.348;2024-02-26T03:39:32;7.80;99.90
21582;DHT22;10952;50.836;4.348;2024-02-26T03:41:59;7.80;99.90
21582;DHT22;10952;50.836;4.348;2024-02-26T03:44:25;7.70;99.90
21582;DHT22;10952;50.836;4.348;2024-02-26T03:46:51;7.70;99.90
21582;DHT22;10952;50.836;4.348;2024-02-26T03:49:18;7.70;99.90
21582;DHT22;10952;50.836;4.348;2024-02-26T03:51:48;7.60;99.90
21582;DHT22;10952;50.836;4.348;2024-02-26T03:54:24;7.70;99.90
21582;DHT22;10952;50.836;4.348;2024-02-26T03:56:50;7.60;99.90
21582;DHT22;10952;50.836;4.348;2024-02-26T03:59:21;7.80;99.90
21582;DHT22;10952;50.836;4.348;2024-02-26T04:01:49;7.70;99.90
21582;DHT22;10952;50.836;4.348;2024-02-26T04:04:17;7.70;99.90
21582;DHT22;10952;50.836;4.348;2024-02-26T04:06:47;7.70;99.90
21582;DHT22;10952;50.836;4.348;2024-02-26T04:09:16;7.70;99.90
21582;DHT22;10952;50.836;4.348;2024-02-26T04:11:42;7.70;99.90
21582;DHT22;10952;50.836;4.348;2024-02-26T04:14:10;7.70;99.90
21582;DHT22;10952;50.836;4.348;2024-02-26T04:16:37;7.60;99.90
21582;DHT22;10952;50.836;4.348;2024-02-26T04:19:08;7.60;99.90
21582;DHT22;10952;50.836;4.348;2024-02-26T04:21:37;7.60;99.90
21582;DHT22;10952;50.836;4.348;2024-02-26T04:24:30;7.60;99.90
21582;DHT22;10952;50.836;4.348;2024-02-26T04:27:01;7.60;99.90
21582;DHT22;10952;50.836;4.348;2024-02-26T04:29:30;7.60;99.90
21582;DHT22;10952;50.836;4.348;2024-02-26T04:32:07;7.70;99.90
21582;DHT22;10952;50.836;4.348;2024-02-26T04:34:35;7.80;99.90
21582;DHT22;10952;50.836;4.348;2024-02-26T04:37:05;7.70;99.90
21582;DHT22;10952;50.836;4.348;2024-02-26T04:39:49;7.60;99.90
21582;DHT22;10952;50.836;4.348;2024-02-26T04:42:19;7.60;99.90
21582;DHT22;10952;50.836;4.348;2024-02-26T04:44:45;7.50;99.90
21582;DHT22;10952;50.836;4.348;2024-02-26T04:47:12;7.50;99.90
21582;DHT22;10952;50.836;4.348;2024-02-26T04:49:39;7.50;99.90
21582;DHT22;10952;50.836;4.348;2024-02-26T04:52:13;7.70;99.90
21582;DHT22;10952;50.836;4.348;2024-02-26T04:54:39;7.60;99.90
21582;DHT22;10952;50.836;4.348;2024-02-26T04:57:08;7.50;99.90
21582;DHT22;10952;50.836;4.348;2024-02-26T04:59:34;7.60;99.90
21582;DHT22;10952;50.836;4.348;2024-02-26T05:02:00;7.60;99.90
21582;DHT22;10952;50.836;4.348;2024-02-26T05:04:26;7.60;99.90
21582;DHT22;10952;50.836;4.348;2024-02-26T05:06:54;7.60;99.90
21582;DHT22;10952;50.836;4.348;2024-02-26T05:09:26;7.70;99.90
21582;DHT22;10952;50.836;4.348;2024-02-26T05:11:56;7.60;99.90
21582;DHT22;10952;50.836;4.348;2024-02-26T05:17:45;7.60;99.90
21582;DHT22;10952;50.836;4.348;2024-02-26T05:20:11;7.40;99.90
21582;DHT22;10952;50.836;4.348;2024-02-26T05:22:37;7.60;99.90
21582;DHT22;10952;50.836;4.348;2024-02-26T05:25:06;7.60;99.90
21582;DHT22;10952;50.836;4.348;2024-02-26T05:27:32;7.20;99.90
21582;DHT22;10952;50.836;4.348;2024-02-26T05:29:57;7.60;99.90
21582;DHT22;10952;50.836;4.348;2024-02-26T05:32:25;7.50;99.90
21582;DHT22;10952;50.836;4.348;2024-02-26T05:34:50;7.50;99.90
21582;DHT22;10952;50.836;4.348;2024-02-26T05:37:21;7.50;99.90
21582;DHT22;10952;50.836;4.348;2024-02-26T05:40:04;7.60;99.90
21582;DHT22;10952;50.836;4.348;2024-02-26T05:42:46;7.70;99.90
21582;DHT22;10952;50.836;4.348;2024-02-26T05:45:15;8.20;99.90
21582;DHT22;10952;50.836;4.348;2024-02-26T05:47:47;7.50;99.90
21582;DHT22;10952;50.836;4.348;2024-02-26T05:50:17;7.50;99.90
21582;DHT22;10952;50.836;4.348;2024-02-26T05:52:47;7.60;99.90
21582;DHT22;10952;50.836;4.348;2024-02-26T05:55:14;7.50;99.90
21582;DHT22;10952;50.836;4.348;2024-02-26T05:57:43;7.50;99.90
21582;DHT22;10952;50.836;4.348;2024-02-26T06:00:19;7.50;99.90
21582;DHT22;10952;50.836;4.348;2024-02-26T06:02:45;7.50;99.90
21582;DHT22;10952;50.836;4.348;2024-02-26T06:05:12;8.10;99.90
21582;DHT22;10952;50.836;4.348;2024-02-26T06:07:38;7.70;99.90
21582;DHT22;10952;50.836;4.348;2024-02-26T06:10:10;7.70;99.90
21582;DHT22;10952;50.836;4.348;2024-02-26T06:12:52;7.60;99.90
21582;DHT22;10952;50.836;4.348;2024-02-26T06:15:22;7.50;99.90
21582;DHT22;10952;50.836;4.348;2024-02-26T06:18:08;7.60;99.90
21582;DHT22;10952;50.836;4.348;2024-02-26T06:20:38;7.70;99.90
21582;DHT22;10952;50.836;4.348;2024-02-26T06:23:05;7.60;99.90
21582;DHT22;10952;50.836;4.348;2024-02-26T06:25:35;7.60;99.90
21582;DHT22;10952;50.836;4.348;2024-02-26T06:28:14;7.60;99.90
21582;DHT22;10952;50.836;4.348;2024-02-26T06:30:46;7.60;99.90
21582;DHT22;10952;50.836;4.348;2024-02-26T06:33:15;7.60;99.90
21582;DHT22;10952;50.836;4.348;2024-02-26T06:35:50;7.70;99.90
21582;DHT22;10952;50.836;4.348;2024-02-26T06:38:21;7.80;99.90
21582;DHT22;10952;50.836;4.348;2024-02-26T06:41:17;7.80;99.90
21582;DHT22;10952;50.836;4.348;2024-02-26T06:43:46;7.70;99.90
21582;DHT22;10952;50.836;4.348;2024-02-26T06:46:20;7.60;99.90
21582;DHT22;10952;50.836;4.348;2024-02-26T06:48:51;7.50;99.90
21582;DHT22;10952;50.836;4.348;2024-02-26T06:51:20;7.70;99.90
21582;DHT22;10952;50.836;4.348;2024-02-26T06:53:56;7.60;99.90
21582;DHT22;10952;50.836;4.348;2024-02-26T06:56:23;7.60;99.90
21582;DHT22;10952;50.836;4.348;2024-02-26T06:58:56;7.60;99.90
21582;DHT22;10952;50.836;4.348;2024-02-26T07:01:23;8.00;99.90
21582;DHT22;10952;50.836;4.348;2024-02-26T07:03:52;7.80;99.90
21582;DHT22;10952;50.836;4.348;2024-02-26T07:06:19;7.60;99.90
21582;DHT22;10952;50.836;4.348;2024-02-26T07:08:45;7.50;99.90
21582;DHT22;10952;50.836;4.348;2024-02-26T07:11:10;7.60;99.90
21582;DHT22;10952;50.836;4.348;2024-02-26T07:13:37;7.70;99.90
21582;DHT22;10952;50.836;4.348;2024-02-26T07:16:07;7.80;99.90
21582;DHT22;10952;50.836;4.348;2024-02-26T07:18:39;7.70;99.90
21582;DHT22;10952;50.836;4.348;2024-02-26T07:21:36;7.80;99.90
21582;DHT22;10952;50.836;4.348;2024-02-26T07:24:02;7.90;99.90
21582;DHT22;10952;50.836;4.348;2024-02-26T07:26:31;7.90;99.90
21582;DHT22;10952;50.836;4.348;2024-02-26T07:28:58;8.10;99.90
21582;DHT22;10952;50.836;4.348;2024-02-26T07:31:27;7.90;99.90
21582;DHT22;10952;50.836;4.348;2024-02-26T07:33:55;7.80;99.90
21582;DHT22;10952;50.836;4.348;2024-02-26T07:36:21;7.80;99.90
21582;DHT22;10952;50.836;4.348;2024-02-26T07:38:48;7.90;99.90
21582;DHT22;10952;50.836;4.348;2024-02-26T07:41:19;7.90;99.90
21582;DHT22;10952;50.836;4.348;2024-02-26T07:43:56;7.80;99.90
21582;DHT22;10952;50.836;4.348;2024-02-26T07:46:34;7.80;99.90
21582;DHT22;10952;50.836;4.348;2024-02-26T07:49:08;7.60;99.90
21582;DHT22;10952;50.836;4.348;2024-02-26T07:51:38;7.50;99.90
21582;DHT22;10952;50.836;4.348;2024-02-26T07:54:06;7.50;99.90
21582;DHT22;10952;50.836;4.348;2024-02-26T07:56:33;7.50;99.90
21582;DHT22;10952;50.836;4.348;2024-02-26T07:59:14;7.60;99.90
21582;DHT22;10952;50.836;4.348;2024-02-26T08:01:40;7.80;99.90
21582;DHT22;10952;50.836;4.348;2024-02-26T08:04:10;7.80;99.90
21582;DHT22;10952;50.836;4.348;2024-02-26T08:06:47;7.80;99.90
21582;DHT22;10952;50.836;4.348;2024-02-26T08:09:41;7.70;99.90
21582;DHT22;10952;50.836;4.348;2024-02-26T08:15:59;7.90;99.90
21582;DHT22;10952;50.836;4.348;2024-02-26T08:18:52;8.00;99.90
21582;DHT22;10952;50.836;4.348;2024-02-26T08:21:26;8.00;99.90
21582;DHT22;10952;50.836;4.348;2024-02-26T08:30:23;7.70;99.90
21582;DHT22;10952;50.836;4.348;2024-02-26T08:33:15;8.10;99.90
21582;DHT22;10952;50.836;4.348;2024-02-26T08:36:03;8.00;99.90
21582;DHT22;10952;50.836;4.348;2024-02-26T08:38:29;8.00;99.90
21582;DHT22;10952;50.836;4.348;2024-02-26T08:41:04;8.00;99.90
21582;DHT22;10952;50.836;4.348;2024-02-26T08:43:32;8.10;99.90
21582;DHT22;10952;50.836;4.348;2024-02-26T08:45:59;8.10;99.90
21582;DHT22;10952;50.836;4.348;2024-02-26T08:48:44;8.10;99.90
21582;DHT22;10952;50.836;4.348;2024-02-26T08:51:40;8.00;99.90
21582;DHT22;10952;50.836;4.348;2024-02-26T08:54:23;8.00;99.90
21582;DHT22;10952;50.836;4.348;2024-02-26T08:56:52;8.00;99.90
21582;DHT22;10952;50.836;4.348;2024-02-26T08:59:18;8.00;99.90
21582;DHT22;10952;50.836;4.348;2024-02-26T09:01:54;8.70;99.90
21582;DHT22;10952;50.836;4.348;2024-02-26T09:04:22;8.10;99.90
21582;DHT22;10952;50.836;4.348;2024-02-26T09:06:50;8.10;99.90
21582;DHT22;10952;50.836;4.348;2024-02-26T09:09:16;8.00;99.90
21582;DHT22;10952;50.836;4.348;2024-02-26T09:11:58;8.20;99.90
21582;DHT22;10952;50.836;4.348;2024-02-26T09:14:28;8.20;99.90
21582;DHT22;10952;50.836;4.348;2024-02-26T09:16:57;8.30;99.90
21582;DHT22;10952;50.836;4.348;2024-02-26T09:19:26;8.20;99.90
21582;DHT22;10952;50.836;4.348;2024-02-26T09:21:56;8.00;99.90
21582;DHT22;10952;50.836;4.348;2024-02-26T09:24:32;8.20;99.90
21582;DHT22;10952;50.836;4.348;2024-02-26T09:27:08;8.10;99.90
21582;DHT22;10952;50.836;4.348;2024-02-26T09:29:39;7.80;99.90
21582;DHT22;10952;50.836;4.348;2024-02-26T09:32:16;8.10;99.90
21582;DHT22;10952;50.836;4.348;2024-02-26T09:34:50;7.50;99.90
21582;DHT22;10952;50.836;4.348;2024-02-26T09:37:19;7.80;99.90
21582;DHT22;10952;50.836;4.348;2024-02-26T09:40:00;8.10;99.90
21582;DHT22;10952;50.836;4.348;2024-02-26T09:43:04;8.00;99.90
21582;DHT22;10952;50.836;4.348;2024-02-26T09:45:41;8.10;99.90
21582;DHT22;10952;50.836;4.348;2024-02-26T09:48:10;8.10;99.90
21582;DHT22;10952;50.836;4.348;2024-02-26T09:50:46;8.00;99.90
21582;DHT22;10952;50.836;4.348;2024-02-26T09:53:18;8.00;99.90
21582;DHT22;10952;50.836;4.348;2024-02-26T09:55:48;8.00;99.90
21582;DHT22;10952;50.836;4.348;2024-02-26T09:58:14;7.90;99.90
21582;DHT22;10952;50.836;4.348;2024-02-26T10:00:50;7.50;99.90
21582;DHT22;10952;50.836;4.348;2024-02-26T10:03:52;7.90;99.90
21582;DHT22;10952;50.836;4.348;2024-02-26T10:06:28;7.90;99.90
21582;DHT22;10952;50.836;4.348;2024-02-26T10:08:57;7.70;99.90
21582;DHT22;10952;50.836;4.348;2024-02-26T10:11:27;7.80;99.90
21582;DHT22;10952;50.836;4.348;2024-02-26T10:14:01;8.00;99.90
21582;DHT22;10952;50.836;4.348;2024-02-26T10:16:30;7.90;99.90
21582;DHT22;10952;50.836;4.348;2024-02-26T10:19:03;7.80;99.90
21582;DHT22;10952;50.836;4.348;2024-02-26T10:26:49;7.90;99.90
21582;DHT22;10952;50.836;4.348;2024-02-26T10:29:14;7.80;99.90
21582;DHT22;10952;50.836;4.348;2024-02-26T10:31:46;7.80;99.90
21582;DHT22;10952;50.836;4.348;2024-02-26T10:34:14;7.80;99.90
21582;DHT22;10952;50.836;4.348;2024-02-26T10:36:43;7.90;99.90
21582;DHT22;10952;50.836;4.348;2024-02-26T10:39:13;7.80;99.90
21582;DHT22;10952;50.836;4.348;2024-02-26T10:41:47;7.90;99.90
21582;DHT22;10952;50.836;4.348;2024-02-26T10:44:57;7.90;99.90
21582;DHT22;10952;50.836;4.348;2024-02-26T10:47:28;7.90;99.90
21582;DHT22;10952;50.836;4.348;2024-02-26T10:49:57;7.80;99.90
21582;DHT22;10952;50.836;4.348;2024-02-26T10:52:26;7.90;99.90
21582;DHT22;10952;50.836;4.348;2024-02-26T10:54:58;7.90;99.90
21582;DHT22;10952;50.836;4.348;2024-02-26T10:57:43;7.90;99.90
21582;DHT22;10952;50.836;4.348;2024-02-26T11:00:14;7.90;99.90
21582;DHT22;10952;50.836;4.348;2024-02-26T11:02:45;7.90;99.90
21582;DHT22;10952;50.836;4.348;2024-02-26T11:05:35;7.90;99.90
21582;DHT22;10952;50.836;4.348;2024-02-26T11:08:05;7.90;99.90
21582;DHT22;10952;50.836;4.348;2024-02-26T11:13:58;7.80;99.90
21582;DHT22;10952;50.836;4.348;2024-02-26T11:16:31;7.70;99.90
21582;DHT22;10952;50.836;4.348;2024-02-26T11:19:01;7.70;99.90
21582;DHT22;10952;50.836;4.348;2024-02-26T11:21:36;7.80;99.90
21582;DHT22;10952;50.836;4.348;2024-02-26T11:24:15;7.90;99.90
21582;DHT22;10952;50.836;4.348;2024-02-26T11:27:17;7.70;99.90
21582;DHT22;10952;50.836;4.348;2024-02-26T11:30:17;7.50;99.90
21582;DHT22;10952;50.836;4.348;2024-02-26T11:32:52;7.60;99.90
21582;DHT22;10952;50.836;4.348;2024-02-26T11:35:20;7.60;99.90
21582;DHT22;10952;50.836;4.348;2024-02-26T11:38:24;7.10;99.90
21582;DHT22;10952;50.836;4.348;2024-02-26T11:40:54;7.50;99.90
21582;DHT22;10952;50.836;4.348;2024-02-26T11:43:58;7.50;99.90
21582;DHT22;10952;50.836;4.348;2024-02-26T11:46:40;7.40;99.90
21582;DHT22;10952;50.836;4.348;2024-02-26T11:59:38;7.70;99.90
21582;DHT22;10952;50.836;4.348;2024-02-26T12:02:09;7.90;99.90
21582;DHT22;10952;50.836;4.348;2024-02-26T12:04:37;7.90;99.90
21582;DHT22;10952;50.836;4.348;2024-02-26T12:07:05;7.90;99.90
21582;DHT22;10952;50.836;4.348;2024-02-26T12:09:41;7.80;99.90
21582;DHT22;10952;50.836;4.348;2024-02-26T12:12:27;7.80;99.90
21582;DHT22;10952;50.836;4.348;2024-02-26T12:15:33;7.90;99.90
21582;DHT22;10952;50.836;4.348;2024-02-26T12:18:04;7.90;99.90
21582;DHT22;10952;50.836;4.348;2024-02-26T12:20:36;7.90;99.90
21582;DHT22;10952;50.836;4.348;2024-02-26T12:23:28;7.90;99.90
21582;DHT22;10952;50.836;4.348;2024-02-26T12:26:19;7.70;99.90
21582;DHT22;10952;50.836;4.348;2024-02-26T12:29:01;7.60;99.90
21582;DHT22;10952;50.836;4.348;2024-02-26T12:32:01;7.60;99.90
21582;DHT22;10952;50.836;4.348;2024-02-26T12:34:43;7.90;99.90
21582;DHT22;10952;50.836;4.348;2024-02-26T12:37:24;7.90;99.90
21582;DHT22;10952;50.836;4.348;2024-02-26T12:39:59;8.10;99.90
21582;DHT22;10952;50.836;4.348;2024-02-26T12:42:29;7.90;99.90
21582;DHT22;10952;50.836;4.348;2024-02-26T12:45:11;7.90;99.90
21582;DHT22;10952;50.836;4.348;2024-02-26T12:51:00;7.90;99.90
21582;DHT22;10952;50.836;4.348;2024-02-26T12:53:28;7.70;99.90
21582;DHT22;10952;50.836;4.348;2024-02-26T12:55:58;7.80;99.90
21582;DHT22;10952;50.836;4.348;2024-02-26T12:58:31;7.70;99.90
21582;DHT22;10952;50.836;4.348;2024-02-26T13:00:59;7.80;99.90
21582;DHT22;10952;50.836;4.348;2024-02-26T13:03:25;7.90;99.90
21582;DHT22;10952;50.836;4.348;2024-02-26T13:05:54;7.90;99.90
21582;DHT22;10952;50.836;4.348;2024-02-26T13:08:24;8.10;99.90
21582;DHT22;10952;50.836;4.348;2024-02-26T13:10:51;7.90;99.90
21582;DHT22;10952;50.836;4.348;2024-02-26T13:13:19;8.00;99.90
21582;DHT22;10952;50.836;4.348;2024-02-26T13:15:48;8.00;99.90
21582;DHT22;10952;50.836;4.348;2024-02-26T13:18:18;7.90;99.90
21582;DHT22;10952;50.836;4.348;2024-02-26T13:20:45;7.90;99.90
21582;DHT22;10952;50.836;4.348;2024-02-26T13:23:12;7.90;99.90
21582;DHT22;10952;50.836;4.348;2024-02-26T13:25:38;7.70;99.90
21582;DHT22;10952;50.836;4.348;2024-02-26T13:28:18;7.70;99.90
21582;DHT22;10952;50.836;4.348;2024-02-26T13:31:00;7.70;99.90
21582;DHT22;10952;50.836;4.348;2024-02-26T13:36:54;7.80;99.90
21582;DHT22;10952;50.836;4.348;2024-02-26T13:39:42;7.60;99.90
21582;DHT22;10952;50.836;4.348;2024-02-26T13:45:53;7.70;99.90
21582;DHT22;10952;50.836;4.348;2024-02-26T13:48:25;7.60;99.90
21582;DHT22;10952;50.836;4.348;2024-02-26T13:50:52;7.60;99.90
21582;DHT22;10952;50.836;4.348;2024-02-26T13:53:20;7.40;99.90
21582;DHT22;10952;50.836;4.348;2024-02-26T13:55:49;7.40;99.90
21582;DHT22;10952;50.836;4.348;2024-02-26T13:58:16;7.50;99.90
21582;DHT22;10952;50.836;4.348;2024-02-26T14:04:10;7.40;99.90
21582;DHT22;10952;50.836;4.348;2024-02-26T14:06:53;7.50;99.90
21582;DHT22;10952;50.836;4.348;2024-02-26T14:09:22;7.50;99.90
21582;DHT22;10952;50.836;4.348;2024-02-26T14:11:49;7.60;99.90
21582;DHT22;10952;50.836;4.348;2024-02-26T14:14:16;7.60;99.90
21582;DHT22;10952;50.836;4.348;2024-02-26T14:16:43;7.70;99.90
21582;DHT22;10952;50.836;4.348;2024-02-26T14:19:10;7.80;99.90
21582;DHT22;10952;50.836;4.348;2024-02-26T14:21:38;7.70;99.90
21582;DHT22;10952;50.836;4.348;2024-02-26T14:24:41;7.70;99.90
21582;DHT22;10952;50.836;4.348;2024-02-26T14:27:30;7.60;99.90
21582;DHT22;10952;50.836;4.348;2024-02-26T14:33:05;7.70;99.90
21582;DHT22;10952;50.836;4.348;2024-02-26T14:35:34;7.70;99.90
21582;DHT22;10952;50.836;4.348;2024-02-26T14:38:06;7.80;99.90
21582;DHT22;10952;50.836;4.348;2024-02-26T14:40:33;7.90;99.90
21582;DHT22;10952;50.836;4.348;2024-02-26T14:43:13;8.00;99.90
21582;DHT22;10952;50.836;4.348;2024-02-26T14:45:40;7.90;99.90
21582;DHT22;10952;50.836;4.348;2024-02-26T14:48:26;7.90;99.90
21582;DHT22;10952;50.836;4.348;2024-02-26T14:51:13;7.60;99.90
21582;DHT22;10952;50.836;4.348;2024-02-26T14:53:42;8.20;99.90
21582;DHT22;10952;50.836;4.348;2024-02-26T14:56:11;7.80;99.90
21582;DHT22;10952;50.836;4.348;2024-02-26T14:58:45;7.90;99.90
21582;DHT22;10952;50.836;4.348;2024-02-26T15:01:36;7.80;99.90
21582;DHT22;10952;50.836;4.348;2024-02-26T15:04:35;7.80;99.90
21582;DHT22;10952;50.836;4.348;2024-02-26T15:07:08;7.80;99.90
21582;DHT22;10952;50.836;4.348;2024-02-26T15:09:42;7.60;99.90
21582;DHT22;10952;50.836;4.348;2024-02-26T15:12:16;7.70;99.90
21582;DHT22;10952;50.836;4.348;2024-02-26T15:14:47;7.50;99.90
21582;DHT22;10952;50.836;4.348;2024-02-26T15:17:23;7.50;99.90
21582;DHT22;10952;50.836;4.348;2024-02-26T15:19:55;7.50;99.90
21582;DHT22;10952;50.836;4.348;2024-02-26T15:22:22;7.50;99.90
21582;DHT22;10952;50.836;4.348;2024-02-26T15:24:52;7.40;99.90
21582;DHT22;10952;50.836;4.348;2024-02-26T15:27:19;7.30;99.90
21582;DHT22;10952;50.836;4.348;2024-02-26T15:29:45;7.50;99.90
21582;DHT22;10952;50.836;4.348;2024-02-26T15:32:14;7.50;99.90
21582;DHT22;10952;50.836;4.348;2024-02-26T15:34:53;7.70;99.90
21582;DHT22;10952;50.836;4.348;2024-02-26T15:37:19;7.40;99.90
21582;DHT22;10952;50.836;4.348;2024-02-26T15:39:45;7.40;99.90
21582;DHT22;10952;50.836;4.348;2024-02-26T15:42:12;7.40;99.90
21582;DHT22;10952;50.836;4.348;2024-02-26T15:44:42;7.60;99.90
21582;DHT22;10952;50.836;4.348;2024-02-26T15:47:14;7.50;99.90
21582;DHT22;10952;50.836;4.348;2024-02-26T15:49:43;7.50;99.90
21582;DHT22;10952;50.836;4.348;2024-02-26T15:52:13;7.50;99.90
21582;DHT22;10952;50.836;4.348;2024-02-26T15:54:40;7.50;99.90
21582;DHT22;10952;50.836;4.348;2024-02-26T15:57:08;7.50;99.90
21582;DHT22;10952;50.836;4.348;2024-02-26T15:59:37;7.60;99.90
21582;DHT22;10952;50.836;4.348;2024-02-26T16:02:04;7.50;99.90
21582;DHT22;10952;50.836;4.348;2024-02-26T16:04:37;7.60;99.90
21582;DHT22;10952;50.836;4.348;2024-02-26T16:07:30;7.50;99.90
21582;DHT22;10952;50.836;4.348;2024-02-26T16:10:07;7.60;99.90
21582;DHT22;10952;50.836;4.348;2024-02-26T16:12:52;7.60;99.90
21582;DHT22;10952;50.836;4.348;2024-02-26T16:15:21;7.60;99.90
21582;DHT22;10952;50.836;4.348;2024-02-26T16:17:51;7.50;99.90
21582;DHT22;10952;50.836;4.348;2024-02-26T16:20:21;7.60;99.90
21582;DHT22;10952;50.836;4.348;2024-02-26T16:22:50;7.60;99.90
21582;DHT22;10952;50.836;4.348;2024-02-26T16:25:18;7.50;99.90
21582;DHT22;10952;50.836;4.348;2024-02-26T16:27:45;7.70;99.90
21582;DHT22;10952;50.836;4.348;2024-02-26T16:30:13;7.60;99.90
21582;DHT22;10952;50.836;4.348;2024-02-26T16:32:42;7.60;99.90
21582;DHT22;10952;50.836;4.348;2024-02-26T16:35:09;7.80;99.90
21582;DHT22;10952;50.836;4.348;2024-02-26T16:37:44;7.60;99.90
21582;DHT22;10952;50.836;4.348;2024-02-26T16:40:18;7.50;99.90
21582;DHT22;10952;50.836;4.348;2024-02-26T16:42:45;7.50;99.90
21582;DHT22;10952;50.836;4.348;2024-02-26T16:45:12;7.50;99.90
21582;DHT22;10952;50.836;4.348;2024-02-26T16:47:40;7.50;99.90
21582;DHT22;10952;50.836;4.348;2024-02-26T16:50:10;7.60;99.90
21582;DHT22;10952;50.836;4.348;2024-02-26T16:52:37;7.60;99.90
21582;DHT22;10952;50.836;4.348;2024-02-26T16:55:08;7.50;99.90
21582;DHT22;10952;50.836;4.348;2024-02-26T16:57:38;7.50;99.90
21582;DHT22;10952;50.836;4.348;2024-02-26T17:00:40;7.50;99.90
21582;DHT22;10952;50.836;4.348;2024-02-26T17:03:09;7.60;99.90
21582;DHT22;10952;50.836;4.348;2024-02-26T17:12:21;7.40;99.90
21582;DHT22;10952;50.836;4.348;2024-02-26T17:14:51;7.40;99.90
21582;DHT22;10952;50.836;4.348;2024-02-26T17:17:19;7.40;99.90
21582;DHT22;10952;50.836;4.348;2024-02-26T17:19:49;7.50;99.90